Terminal Aerodrome Forecast
Issued by NWS Atlanta, GA

Current Version | Previous Version | Text Only | Print | Product List | Glossary On
Versions: 1 2 3 4 5 6 7 8 9 10 11 12 13 14 15 16 17 18 19 20 21 22
000
FTUS42 KFFC 022344
TAFCSG
TAF
KCSG 022344Z 0300/0324 00000KT P6SM VCSH BKN040 OVC050
     FM030100 32004KT P6SM SCT120
     FM031500 24003KT P6SM FEW070
     FM031800 20003KT P6SM SCT045 PROB30 0320/0323 6SM -TSRA
      BKN045CB=

USA.gov is the U.S. government's official web portal to all federal, state and local government web resources and services.